Main page
METAR-TAF:

METAR-TAF

Airports :

Draughon–Miller Central Texas Regional Airport

Temple, Texas, United States

latitude: 31-09N, longitude: 097-24W, elevation: 682 ft

Current weather observation

The report was made 52 minutes ago, at 20:51 UTC
Wind 16 mph from the South
Temperature 79°F
Humidity 58%
Pressure 29.77 in. Hg
Visibility: 10 miles
Few clouds at a height of 3700 ft

METAR: KTPL 172051Z AUTO 19014KT 10SM FEW037 26/17 A2977 RMK AO2 SLP072 T02560172 56021

Time: 15:43 (21:43 UTC)


TAF: missing

Weather observations and forecasts of more than 4000 airports (METAR and TAF reports).

The available stations are represented by yellow and red dots on the map.

Hover mouse over dot to see the name of the station.

Then click to see weather observations and forecasts.

To change the map : click on the green buttons with a black cross to zoom in, on the green button with a dash to zoom out, or on the green arrows for adjacent maps.


METAR-TAF: